Autoridad de Aeronautica Civil de Panamá


metar




ESTACIONES DESCRIPCION
MPTO (M) 280500Z 00000KT CAVOK 24/21 Q1014 NOSIG=  
MPBO (M) 271700Z 27005KT 9999 SCT018 SCT090 ///// Q1016=  
MPCH (M) 271700Z 06010KT 9999 SCT020 SCT080 29/23 Q1017=  
MPSA (M)  
MPCE (M)  
MPPN (M)  
MPSM (M) 271700Z 15010KT(E) 9999 FEW030 29/24 Q1014=  
MPJE (M) 271600Z 27008KT 9999 SCT025 ///// Q1016  
MPPA (M) 280300Z 35010KT 9999 FEW018 26/23 Q1013=  
MPMG (M) 271900Z 07005KT 9999 SCT020 33/22 Q1012 NOSIG=  
MPDA (M)  
MPVR (M)  
MPWN FUERA DE SERVICIO  
MPOA (M)  
MPMF (M)=  
MPEJ (M)  


 

CLIMATICAS

MPTO

27 FEBRERO 2020

 

PCPN (mm)

T° MAX

T° MIN

VIENTO MAX (KT)

HORA

VIENTO PREDOM (KT)

0.0

32.0

20.4

02012KT

2300Z

NE06KT

CLIMATICAS

MPMG

25- FEBRERO -2020

PCPN (mm)

T° MAX

T° MIN

VIENTO MAX (KT)

HORA

VIENTO PREDOM (KT)-

0.0

32.7

22.4

29014KT

2100Z

NW

 



Contador: 14913